Estherville, Iowa
Current Conditions -  °F | °C
As of 7:09 AM on Monday 22 Dec 2014 (Local Time) from KEST Reporting Station
Haze Haze  
Wind Chill: 27°   Ceiling: 200
Heat Index: 37°   Visibility: 1.2mi
Dew Point: 37°   Wind: 18mph
Humidity: 100%   Direction: 150°SSE
Pressure: 29.56"   Gusts: NA
Location:  43.4°N, 94.84°W
Report Text: KEST 221309Z AUTO 15016KT 1 1/4SM BR OVC002 03/03 A2956 RMK AO2 T00280028
Loading
Personal Weather Stations






























Interactive Weather Map New forecast layout! Learn more

10-Day Weather Forecast

Advertisements
Track Severe Weather on mobile